createdAt,value
2022-10-31T00:08:03.295Z,67.68
2022-10-31T00:19:12.889Z,67.95
2022-10-31T00:24:44.603Z,68.13
2022-10-31T00:30:16.463Z,68.18
2022-10-31T00:35:48.212Z,68.22
2022-10-31T00:41:20.057Z,68.30
2022-10-31T00:46:51.863Z,68.86
2022-10-31T00:52:23.778Z,69.19
2022-10-31T00:57:55.609Z,69.06
2022-10-31T01:03:27.192Z,69.03
2022-10-31T01:08:58.833Z,68.95
2022-10-31T01:14:30.222Z,69.00
2022-10-31T01:20:01.689Z,69.02
2022-10-31T01:25:33.629Z,68.99
2022-10-31T01:36:34.735Z,69.05
2022-10-31T01:42:06.620Z,69.17
2022-10-31T01:53:12.720Z,69.19
2022-10-31T01:58:44.418Z,69.27
2022-10-31T02:04:17.867Z,69.24
2022-10-31T02:09:49.953Z,69.34
2022-10-31T02:15:21.511Z,69.44
2022-10-31T02:20:52.810Z,69.59
2022-10-31T02:26:24.230Z,69.67
2022-10-31T02:43:00.148Z,69.80
2022-10-31T02:54:03.531Z,69.78
2022-10-31T02:59:35.263Z,69.79
2022-10-31T03:05:06.785Z,69.71
2022-10-31T03:10:38.740Z,69.77
2022-10-31T03:16:10.541Z,69.81
2022-10-31T03:21:42.432Z,69.82
2022-10-31T03:27:13.989Z,69.81
2022-10-31T03:35:09.412Z,69.85
2022-10-31T03:46:12.910Z,69.87
2022-10-31T03:51:44.809Z,69.89
2022-10-31T03:57:16.801Z,69.99
2022-10-31T04:08:20.861Z,70.10
2022-10-31T04:13:52.785Z,70.16
2022-10-31T04:19:24.848Z,70.18
2022-10-31T04:36:00.448Z,70.30
2022-10-31T04:41:32.511Z,70.37
2022-10-31T04:47:04.272Z,70.40
2022-10-31T04:52:36.039Z,70.50
2022-10-31T04:58:08.025Z,70.50
2022-10-31T05:03:40.103Z,70.49
2022-10-31T05:09:11.786Z,70.52
2022-10-31T05:14:46.158Z,70.48
2022-10-31T05:20:15.558Z,70.51
2022-10-31T05:25:47.705Z,70.50
2022-10-31T05:31:19.271Z,70.46
2022-10-31T05:36:51.090Z,70.52
2022-10-31T05:42:23.236Z,70.52
2022-10-31T05:47:54.757Z,70.64
2022-10-31T05:53:26.583Z,70.65
2022-10-31T05:59:00.115Z,70.60
2022-10-31T06:04:32.203Z,70.62
2022-10-31T06:10:03.696Z,71.21
2022-10-31T06:15:37.108Z,71.09
2022-10-31T06:21:08.830Z,71.08
2022-10-31T06:26:40.628Z,70.89
2022-10-31T06:32:12.386Z,70.95
2022-10-31T06:37:46.821Z,70.95
2022-10-31T06:43:16.815Z,70.77
2022-10-31T06:48:49.088Z,70.65
2022-10-31T06:54:21.275Z,70.22
2022-10-31T06:59:53.255Z,69.93
2022-10-31T07:05:25.281Z,69.02
2022-10-31T07:10:57.424Z,68.70
2022-10-31T07:16:29.898Z,67.88
2022-10-31T07:22:01.809Z,67.58
2022-10-31T07:27:35.682Z,66.92
2022-10-31T07:35:27.398Z,66.53
2022-10-31T07:40:59.202Z,66.20
2022-10-31T07:46:31.400Z,65.63
2022-10-31T07:52:03.225Z,65.36
2022-10-31T07:57:35.023Z,64.64
2022-10-31T08:03:06.811Z,64.39
2022-10-31T08:08:39.405Z,63.63
2022-10-31T08:14:10.935Z,63.28
2022-10-31T08:19:42.716Z,62.83
2022-10-31T08:25:14.791Z,62.33
2022-10-31T08:30:46.523Z,61.41
2022-10-31T08:36:18.209Z,60.92
2022-10-31T08:41:50.184Z,60.00
2022-10-31T08:47:22.251Z,59.75
2022-10-31T08:53:05.683Z,58.95
2022-10-31T08:58:25.923Z,58.38
2022-10-31T09:03:57.575Z,57.24
2022-10-31T09:11:51.357Z,57.03
2022-10-31T09:17:23.423Z,57.09
2022-10-31T09:22:55.388Z,56.70
2022-10-31T09:28:26.977Z,57.23
2022-10-31T09:33:59.057Z,58.07
2022-10-31T09:39:30.486Z,58.34
2022-10-31T09:45:02.133Z,58.63
2022-10-31T09:50:33.803Z,58.75
2022-10-31T09:56:05.657Z,59.25
2022-10-31T10:01:37.755Z,59.51
2022-10-31T10:07:09.830Z,59.63
2022-10-31T10:18:11.329Z,59.64
2022-10-31T10:23:43.099Z,59.33
2022-10-31T10:29:14.776Z,59.01
2022-10-31T10:34:46.614Z,59.37
2022-10-31T10:40:18.144Z,59.31
2022-10-31T10:45:50.049Z,59.47
2022-10-31T10:51:32.033Z,58.75
2022-10-31T11:02:23.182Z,58.14
2022-10-31T11:07:55.101Z,58.17
2022-10-31T11:18:56.762Z,56.24
2022-10-31T11:24:28.360Z,54.53
2022-10-31T11:30:00.980Z,54.64
2022-10-31T11:35:31.682Z,53.44
2022-10-31T11:41:03.409Z,53.35
2022-10-31T11:46:35.424Z,53.48
2022-10-31T11:52:07.159Z,52.38
2022-10-31T11:57:38.838Z,51.89
2022-10-31T12:03:10.703Z,51.77
2022-10-31T12:08:42.381Z,51.85
2022-10-31T12:14:15.411Z,52.38
2022-10-31T12:19:49.156Z,51.85
2022-10-31T12:25:18.601Z,52.04
2022-10-31T12:30:50.665Z,52.10
2022-10-31T12:36:22.340Z,52.58
2022-10-31T12:41:54.118Z,53.49
2022-10-31T12:47:25.910Z,53.71
2022-10-31T12:52:57.717Z,52.44
2022-10-31T12:58:29.394Z,52.43
2022-10-31T13:04:00.972Z,52.73
2022-10-31T13:09:32.562Z,53.42
2022-10-31T13:15:04.389Z,53.65
2022-10-31T13:20:36.174Z,53.73
2022-10-31T13:26:07.811Z,53.27
2022-10-31T13:31:39.861Z,53.19
2022-10-31T13:42:43.171Z,54.28
2022-10-31T13:48:14.902Z,54.70
2022-10-31T13:53:47.077Z,55.90
2022-10-31T13:59:19.029Z,56.62
2022-10-31T14:04:50.854Z,57.89
2022-10-31T14:10:22.812Z,57.78
2022-10-31T14:21:26.174Z,59.09
2022-10-31T14:26:58.164Z,59.75
2022-10-31T14:32:29.875Z,59.93
2022-10-31T14:38:01.965Z,60.93
2022-10-31T14:43:33.141Z,61.36
2022-10-31T14:49:05.117Z,61.70
2022-10-31T14:54:36.683Z,62.18
2022-10-31T15:00:08.527Z,62.86
2022-10-31T15:05:40.150Z,63.25
2022-10-31T15:11:12.200Z,63.41
2022-10-31T15:16:43.648Z,63.87
2022-10-31T15:22:15.367Z,64.47
2022-10-31T15:27:47.149Z,65.02
2022-10-31T15:33:18.893Z,65.87
2022-10-31T15:38:53.393Z,65.56
2022-10-31T15:44:24.901Z,66.44
2022-10-31T15:49:56.767Z,66.33
2022-10-31T15:55:28.709Z,66.11
2022-10-31T16:01:00.326Z,66.32
2022-10-31T16:06:31.996Z,66.62
2022-10-31T16:12:03.763Z,66.94
2022-10-31T16:17:36.013Z,67.47
2022-10-31T16:34:11.814Z,67.80
2022-10-31T16:41:56.831Z,0.00
2022-10-31T16:47:29.921Z,67.55
2022-10-31T16:53:13.527Z,67.69
2022-10-31T17:04:02.658Z,68.30
2022-10-31T17:09:34.479Z,69.93
2022-10-31T17:15:06.241Z,69.98
2022-10-31T17:20:37.942Z,71.01
2022-10-31T17:26:09.996Z,71.19
2022-10-31T17:31:44.128Z,70.89
2022-10-31T17:37:15.956Z,71.00
2022-10-31T17:42:47.742Z,71.54
2022-10-31T17:48:19.456Z,71.30
2022-10-31T17:53:51.132Z,70.84
2022-10-31T17:59:23.000Z,71.84
2022-10-31T18:04:54.517Z,71.93
2022-10-31T18:15:55.982Z,72.72
2022-10-31T18:21:27.915Z,72.22
2022-10-31T18:27:00.397Z,71.69
2022-10-31T18:32:32.322Z,71.50
2022-10-31T18:38:04.429Z,71.37
2022-10-31T18:43:36.353Z,71.66
2022-10-31T18:49:08.231Z,71.32
2022-10-31T18:54:40.046Z,71.27
2022-10-31T19:00:11.603Z,71.11
2022-10-31T19:05:43.516Z,71.08
2022-10-31T19:11:15.015Z,70.94
2022-10-31T19:16:46.743Z,70.90
2022-10-31T19:22:18.489Z,70.80
2022-10-31T19:27:50.184Z,70.83
2022-10-31T19:33:21.882Z,70.74
2022-10-31T19:38:53.361Z,70.76
2022-10-31T19:44:25.082Z,70.66
2022-10-31T19:49:56.739Z,70.68
2022-10-31T19:55:28.515Z,70.70
2022-10-31T20:01:00.454Z,70.69
2022-10-31T20:06:31.998Z,70.84
2022-10-31T20:12:03.910Z,70.88
2022-10-31T20:17:35.754Z,70.84
2022-10-31T20:23:07.422Z,70.82
2022-10-31T20:28:43.379Z,70.83
2022-10-31T20:34:11.061Z,70.76
2022-10-31T20:39:42.822Z,70.76
2022-10-31T20:45:14.469Z,70.70
2022-10-31T20:50:51.987Z,70.76
2022-10-31T20:56:23.662Z,70.76
2022-10-31T21:07:27.393Z,70.95
2022-10-31T21:13:01.077Z,71.00
2022-10-31T21:18:32.738Z,71.08
2022-10-31T21:24:06.878Z,71.12
2022-10-31T21:29:38.673Z,71.14
2022-10-31T21:35:10.505Z,71.23
2022-10-31T21:46:13.960Z,71.23
2022-10-31T21:57:18.520Z,71.33
2022-10-31T22:02:50.109Z,71.25
2022-10-31T22:08:21.869Z,71.30
2022-10-31T22:13:53.688Z,71.34
2022-10-31T22:19:27.849Z,71.40
2022-10-31T22:24:59.674Z,71.39
2022-10-31T22:30:31.416Z,71.39
2022-10-31T22:36:03.362Z,71.46
2022-10-31T22:41:35.061Z,71.45
2022-10-31T22:52:38.673Z,71.59
2022-10-31T23:03:42.234Z,71.67
2022-10-31T23:14:43.542Z,71.63
2022-10-31T23:20:15.176Z,71.73
2022-10-31T23:25:47.063Z,71.76
2022-10-31T23:36:48.474Z,71.70
2022-10-31T23:42:20.299Z,71.73
2022-10-31T23:47:51.982Z,71.79
2022-10-31T23:53:23.839Z,71.85
2022-10-31T23:58:55.431Z,72.73
